Time;durP1;ratioP1;P1;durP2;ratioP2;P2;SDS_P1;SDS_P2;PMS_P1;PMS_P2;Temp;Humidity;BMP_temperature;BMP_pressure;BME280_temperature;BME280_humidity;BME280_pressure;Samples;Min_cycle;Max_cycle;Signal;HPM_P1;HPM_P2
2022/08/31 00:05:14;;;;;;;;;;;16.50;99.90;;;;;;5056748;28;19963;-76
2022/08/31 00:07:39;;;;;;;;;;;16.40;99.90;;;;;;5045693;28;19955;-76
2022/08/31 00:10:12;;;;;;;;;;;16.40;99.90;;;;;;5063360;28;19924;-76
2022/08/31 00:12:39;;;;;;;;;;;16.40;99.90;;;;;;5063309;28;20027;-76
2022/08/31 00:15:05;;;;;;;;;;;16.40;99.90;;;;;;5032438;28;19925;-76
2022/08/31 00:17:30;;;;;;;;;;;16.40;99.90;;;;;;5043435;28;20351;-76
2022/08/31 00:19:56;;;;;;;;;;;16.30;99.90;;;;;;5046270;28;20020;-75
2022/08/31 00:22:21;;;;;;;;;;;16.30;99.90;;;;;;5063281;28;19931;-76
2022/08/31 00:24:47;;;;;;;;;;;16.30;99.90;;;;;;5063314;28;19931;-76
2022/08/31 00:27:14;;;;;;;;;;;16.30;99.90;;;;;;5062761;28;20484;-76
2022/08/31 00:29:40;;;;;;;;;;;16.30;99.90;;;;;;5030342;28;19947;-76
2022/08/31 00:32:05;;;;;;;;;;;16.20;99.90;;;;;;5033268;28;20418;-76
2022/08/31 00:34:31;;;;;;;;;;;16.20;99.90;;;;;;5057955;28;19925;-76
2022/08/31 00:36:58;;;;;;;;;;;16.20;99.90;;;;;;5043683;28;20349;-75
2022/08/31 00:39:24;;;;;;;;;;;16.20;99.90;;;;;;5009293;28;19925;-75
2022/08/31 00:41:50;;;;;;;;;;;16.20;99.90;;;;;;5047312;28;20424;-76
2022/08/31 00:44:15;;;;;;;;;;;16.10;99.90;;;;;;5062262;28;19928;-76
2022/08/31 00:46:41;;;;;;;;;;;16.10;99.90;;;;;;5062895;28;19947;-76
2022/08/31 00:49:13;;;;;;;;;;;16.00;99.90;;;;;;5063502;28;19970;-75
2022/08/31 00:51:42;;;;;;;;;;;16.00;99.90;;;;;;5045936;28;19925;-75
2022/08/31 00:54:09;;;;;;;;;;;16.00;99.90;;;;;;5043461;28;20388;-76
2022/08/31 00:56:35;;;;;;;;;;;16.00;99.90;;;;;;5042932;28;19925;-76
2022/08/31 00:59:00;;;;;;;;;;;16.00;99.90;;;;;;5041899;28;19932;-76
2022/08/31 01:01:28;;;;;;;;;;;16.00;99.90;;;;;;5057761;28;20426;-76
2022/08/31 01:03:54;;;;;;;;;;;15.90;99.90;;;;;;5063652;28;19931;-75
2022/08/31 01:06:20;;;;;;;;;;;15.90;99.90;;;;;;5063168;28;20809;-75
2022/08/31 01:08:46;;;;;;;;;;;15.90;99.90;;;;;;5062940;28;20404;-76
2022/08/31 01:11:12;;;;;;;;;;;15.80;99.90;;;;;;5047336;28;19932;-76
2022/08/31 01:13:38;;;;;;;;;;;15.80;99.90;;;;;;5024493;28;19925;-76
2022/08/31 01:16:05;;;;;;;;;;;15.80;99.90;;;;;;5042529;28;19928;-76
2022/08/31 01:18:32;;;;;;;;;;;15.80;99.90;;;;;;5042532;28;19925;-75
2022/08/31 01:21:00;;;;;;;;;;;15.70;99.90;;;;;;5037886;28;20401;-75
2022/08/31 01:23:28;;;;;;;;;;;15.70;99.90;;;;;;5045298;28;19928;-75
2022/08/31 01:25:55;;;;;;;;;;;15.70;99.90;;;;;;5063233;28;20287;-75
2022/08/31 01:28:20;;;;;;;;;;;15.70;99.90;;;;;;5062973;28;19925;-76
2022/08/31 01:31:00;;;;;;;;;;;15.70;99.90;;;;;;5050170;28;19931;-76
2022/08/31 01:33:26;;;;;;;;;;;15.60;99.90;;;;;;5025927;28;19932;-75
2022/08/31 01:35:52;;;;;;;;;;;15.60;99.90;;;;;;5058743;28;19996;-76
2022/08/31 01:38:17;;;;;;;;;;;15.60;99.90;;;;;;5062965;28;20287;-76
2022/08/31 01:40:45;;;;;;;;;;;15.60;99.90;;;;;;5066104;28;20390;-75
2022/08/31 01:43:11;;;;;;;;;;;15.60;99.90;;;;;;5066975;28;19925;-76
2022/08/31 01:45:36;;;;;;;;;;;15.50;99.90;;;;;;5065290;28;19925;-75
2022/08/31 01:48:02;;;;;;;;;;;15.50;99.90;;;;;;5052702;28;19925;-76
2022/08/31 01:50:27;;;;;;;;;;;15.50;99.90;;;;;;5046828;28;20393;-75
2022/08/31 01:52:53;;;;;;;;;;;15.50;99.90;;;;;;5028234;28;20676;-76
2022/08/31 01:55:18;;;;;;;;;;;15.50;99.90;;;;;;5046280;28;19929;-76
2022/08/31 01:57:44;;;;;;;;;;;15.40;99.90;;;;;;5056326;28;19932;-76
2022/08/31 02:00:10;;;;;;;;;;;15.40;99.90;;;;;;5063290;28;20040;-76
2022/08/31 02:02:35;;;;;;;;;;;15.40;99.90;;;;;;5031892;28;19928;-76
2022/08/31 02:05:01;;;;;;;;;;;15.40;99.90;;;;;;5048673;28;19932;-76
2022/08/31 02:07:26;;;;;;;;;;;15.40;99.90;;;;;;5064254;28;19931;-75
2022/08/31 02:09:52;;;;;;;;;;;15.40;99.90;;;;;;5066046;28;19935;-76
2022/08/31 02:12:17;;;;;;;;;;;15.40;99.90;;;;;;5065908;28;19925;-75
2022/08/31 02:14:43;;;;;;;;;;;15.30;99.90;;;;;;5064434;28;19924;-76
2022/08/31 02:17:09;;;;;;;;;;;15.30;99.90;;;;;;5060385;28;20265;-75
2022/08/31 02:19:36;;;;;;;;;;;15.30;99.90;;;;;;5044789;28;21310;-75
2022/08/31 02:22:02;;;;;;;;;;;15.20;99.90;;;;;;5045565;28;19939;-76
2022/08/31 02:24:27;;;;;;;;;;;15.20;99.90;;;;;;5028395;28;20007;-75
2022/08/31 02:26:53;;;;;;;;;;;15.20;99.90;;;;;;5030378;28;19950;-75
2022/08/31 02:29:18;;;;;;;;;;;15.20;99.90;;;;;;5064612;28;20375;-75
2022/08/31 02:31:44;;;;;;;;;;;15.20;99.90;;;;;;5047789;28;19928;-75
2022/08/31 02:34:09;;;;;;;;;;;15.10;99.90;;;;;;5063032;28;20329;-76
2022/08/31 02:36:35;;;;;;;;;;;15.10;99.90;;;;;;5045382;28;19935;-76
2022/08/31 02:39:00;;;;;;;;;;;15.10;99.90;;;;;;5049107;28;19924;-76
2022/08/31 02:41:26;;;;;;;;;;;15.10;99.90;;;;;;5027869;28;19940;-75
2022/08/31 02:43:51;;;;;;;;;;;15.10;99.90;;;;;;5042988;28;20020;-75
2022/08/31 02:46:17;;;;;;;;;;;15.10;99.90;;;;;;5045191;28;19925;-75
2022/08/31 02:48:42;;;;;;;;;;;15.10;99.90;;;;;;5062211;28;19924;-75
2022/08/31 02:51:09;;;;;;;;;;;15.10;99.90;;;;;;5065007;28;19963;-76
2022/08/31 02:53:35;;;;;;;;;;;15.00;99.90;;;;;;5064764;28;19931;-76
2022/08/31 02:56:01;;;;;;;;;;;15.10;99.90;;;;;;5047442;28;19925;-76
2022/08/31 02:58:27;;;;;;;;;;;15.00;99.90;;;;;;5032081;28;19932;-75
2022/08/31 03:00:52;;;;;;;;;;;15.00;99.90;;;;;;5043854;28;19925;-75
2022/08/31 03:03:18;;;;;;;;;;;15.00;99.90;;;;;;5045825;28;20518;-76
2022/08/31 03:05:43;;;;;;;;;;;15.00;99.90;;;;;;5044801;28;20067;-76
2022/08/31 03:08:09;;;;;;;;;;;15.00;99.90;;;;;;5026854;28;20019;-76
2022/08/31 03:10:34;;;;;;;;;;;15.00;99.90;;;;;;5044613;28;20377;-76
2022/08/31 03:13:00;;;;;;;;;;;15.00;99.90;;;;;;5026941;28;19925;-76
2022/08/31 03:15:27;;;;;;;;;;;14.90;99.90;;;;;;5044012;28;19951;-75
2022/08/31 03:17:53;;;;;;;;;;;14.90;99.90;;;;;;5063975;28;19951;-76
2022/08/31 03:20:19;;;;;;;;;;;14.90;99.90;;;;;;5047202;28;19932;-76
2022/08/31 03:22:44;;;;;;;;;;;14.90;99.90;;;;;;5064124;28;20007;-76
2022/08/31 03:25:10;;;;;;;;;;;14.90;99.90;;;;;;5048107;28;20051;-76
2022/08/31 03:27:37;;;;;;;;;;;14.90;99.90;;;;;;5026701;28;19928;-75
2022/08/31 03:30:05;;;;;;;;;;;14.90;99.90;;;;;;5043789;28;19932;-75
2022/08/31 03:32:31;;;;;;;;;;;14.90;99.90;;;;;;5043903;28;19924;-76
2022/08/31 03:34:58;;;;;;;;;;;14.90;99.90;;;;;;5049713;28;20406;-75
2022/08/31 03:37:24;;;;;;;;;;;14.80;99.90;;;;;;5044493;28;19924;-75
2022/08/31 03:39:49;;;;;;;;;;;14.80;99.90;;;;;;5043939;28;19925;-75
2022/08/31 03:42:15;;;;;;;;;;;14.80;99.90;;;;;;5044112;28;19979;-76
2022/08/31 03:44:40;;;;;;;;;;;14.90;99.90;;;;;;5054600;28;19975;-75
2022/08/31 03:47:06;;;;;;;;;;;14.80;99.90;;;;;;5046035;28;19931;-75
2022/08/31 03:49:31;;;;;;;;;;;14.80;99.90;;;;;;5063555;28;19925;-76
2022/08/31 03:51:57;;;;;;;;;;;14.80;99.90;;;;;;5046847;28;20393;-75
2022/08/31 03:54:22;;;;;;;;;;;14.80;99.90;;;;;;5054773;28;20090;-76
2022/08/31 03:56:48;;;;;;;;;;;14.80;99.90;;;;;;5025727;28;19971;-75
2022/08/31 03:59:13;;;;;;;;;;;14.80;99.90;;;;;;5043185;28;20010;-76
2022/08/31 04:01:39;;;;;;;;;;;14.80;99.90;;;;;;5042656;28;19925;-76
2022/08/31 04:04:04;;;;;;;;;;;14.80;99.90;;;;;;5049698;28;19928;-76
2022/08/31 04:06:30;;;;;;;;;;;14.80;99.90;;;;;;5063429;28;20291;-76
2022/08/31 04:08:56;;;;;;;;;;;14.80;99.90;;;;;;5063886;28;19976;-76
2022/08/31 04:11:21;;;;;;;;;;;14.80;99.90;;;;;;5046141;28;20005;-76
2022/08/31 04:13:47;;;;;;;;;;;14.80;99.90;;;;;;5056179;28;20090;-76
2022/08/31 04:16:14;;;;;;;;;;;14.80;99.90;;;;;;5043435;28;19925;-76
2022/08/31 04:18:40;;;;;;;;;;;14.70;99.90;;;;;;5043209;28;19932;-76
2022/08/31 04:21:11;;;;;;;;;;;14.70;99.90;;;;;;5043697;28;19932;-76
2022/08/31 04:23:39;;;;;;;;;;;14.70;99.90;;;;;;5044577;28;19952;-76
2022/08/31 04:26:05;;;;;;;;;;;14.70;99.90;;;;;;5043618;28;19948;-76
2022/08/31 04:28:30;;;;;;;;;;;14.70;99.90;;;;;;5042253;28;20307;-76
2022/08/31 04:30:56;;;;;;;;;;;14.60;99.90;;;;;;5044119;28;19928;-75
2022/08/31 04:33:21;;;;;;;;;;;14.70;99.90;;;;;;5044641;28;19995;-76
2022/08/31 04:35:47;;;;;;;;;;;14.60;99.90;;;;;;5047171;28;19932;-75
2022/08/31 04:38:12;;;;;;;;;;;14.60;99.90;;;;;;5043307;28;20334;-75
2022/08/31 04:40:39;;;;;;;;;;;14.60;99.90;;;;;;5042545;28;19972;-75
2022/08/31 04:43:04;;;;;;;;;;;14.60;99.90;;;;;;5043346;28;19971;-75
2022/08/31 04:45:30;;;;;;;;;;;14.60;99.90;;;;;;5061095;28;19925;-76
2022/08/31 04:47:55;;;;;;;;;;;14.50;99.90;;;;;;5045454;28;20361;-75
2022/08/31 04:50:21;;;;;;;;;;;14.60;99.90;;;;;;5063418;28;19928;-75
2022/08/31 04:52:49;;;;;;;;;;;14.50;99.90;;;;;;5063067;28;19931;-75
2022/08/31 04:55:15;;;;;;;;;;;14.50;99.90;;;;;;5027962;28;19986;-75
2022/08/31 04:57:41;;;;;;;;;;;14.60;99.90;;;;;;5042751;28;19924;-75
2022/08/31 05:00:08;;;;;;;;;;;14.60;99.90;;;;;;5025438;28;19924;-75
2022/08/31 05:02:33;;;;;;;;;;;14.50;99.90;;;;;;5042601;28;20020;-75
2022/08/31 05:04:59;;;;;;;;;;;14.50;99.90;;;;;;5054269;28;20007;-75
2022/08/31 05:07:25;;;;;;;;;;;14.50;99.90;;;;;;5046257;28;19944;-74
2022/08/31 05:09:51;;;;;;;;;;;14.50;99.90;;;;;;5053593;28;19987;-74
2022/08/31 05:12:16;;;;;;;;;;;14.50;99.90;;;;;;5057037;28;19932;-75
2022/08/31 05:14:42;;;;;;;;;;;14.60;99.90;;;;;;5061052;28;20327;-74
2022/08/31 05:17:08;;;;;;;;;;;14.50;99.90;;;;;;5058006;28;19924;-74
2022/08/31 05:19:34;;;;;;;;;;;14.50;99.90;;;;;;5051034;28;20418;-75
2022/08/31 05:22:00;;;;;;;;;;;14.50;99.90;;;;;;5033058;28;19924;-74
2022/08/31 05:24:25;;;;;;;;;;;14.60;99.90;;;;;;5042186;28;19932;-74
2022/08/31 05:26:53;;;;;;;;;;;14.60;99.90;;;;;;5066406;28;20344;-74
2022/08/31 05:29:20;;;;;;;;;;;14.50;99.90;;;;;;5035042;28;20441;-74
2022/08/31 05:31:46;;;;;;;;;;;14.50;99.90;;;;;;5046930;28;19932;-74
2022/08/31 05:34:13;;;;;;;;;;;14.60;99.90;;;;;;5031243;28;20596;-74
2022/08/31 05:36:40;;;;;;;;;;;14.60;99.90;;;;;;5059610;28;19931;-74
2022/08/31 05:39:08;;;;;;;;;;;14.60;99.90;;;;;;5052092;28;19932;-78
2022/08/31 05:41:33;;;;;;;;;;;14.60;99.90;;;;;;5049493;28;19979;-75
2022/08/31 05:44:00;;;;;;;;;;;14.60;99.90;;;;;;5045244;28;20624;-78
2022/08/31 05:46:26;;;;;;;;;;;14.60;99.90;;;;;;5055644;28;20007;-78
2022/08/31 05:48:51;;;;;;;;;;;14.60;99.90;;;;;;5054416;28;20003;-75
2022/08/31 05:51:17;;;;;;;;;;;14.70;99.90;;;;;;5057668;28;20318;-72
2022/08/31 05:53:43;;;;;;;;;;;14.70;99.90;;;;;;5042810;28;19929;-71
2022/08/31 05:56:11;;;;;;;;;;;14.70;99.90;;;;;;5065803;28;19981;-72
2022/08/31 05:58:37;;;;;;;;;;;14.70;99.90;;;;;;5064466;28;19931;-78
2022/08/31 06:01:04;;;;;;;;;;;14.70;99.90;;;;;;5054644;28;19964;-75
2022/08/31 06:03:30;;;;;;;;;;;14.80;99.90;;;;;;5045182;28;20409;-78
2022/08/31 06:05:55;;;;;;;;;;;14.80;99.90;;;;;;5045175;28;19925;-78
2022/08/31 06:08:21;;;;;;;;;;;14.80;99.90;;;;;;5045337;28;20310;-79
2022/08/31 06:10:47;;;;;;;;;;;14.80;99.90;;;;;;5026025;28;19925;-78
2022/08/31 06:13:14;;;;;;;;;;;14.90;99.90;;;;;;5050337;28;19984;-78
2022/08/31 06:15:40;;;;;;;;;;;14.90;99.90;;;;;;5064630;28;19925;-78
2022/08/31 06:18:06;;;;;;;;;;;14.90;99.90;;;;;;5065695;28;20132;-78
2022/08/31 06:20:36;;;;;;;;;;;14.90;99.90;;;;;;5064165;28;19936;-78
2022/08/31 06:23:04;;;;;;;;;;;15.00;99.90;;;;;;5055374;28;20386;-78
2022/08/31 06:25:30;;;;;;;;;;;15.00;99.90;;;;;;5053961;28;20005;-78
2022/08/31 06:27:56;;;;;;;;;;;15.00;99.90;;;;;;5062335;28;19925;-78
2022/08/31 06:30:25;;;;;;;;;;;15.10;99.90;;;;;;5045919;28;20193;-78
2022/08/31 06:32:52;;;;;;;;;;;15.10;99.90;;;;;;5055182;28;19925;-78
2022/08/31 06:35:17;;;;;;;;;;;15.20;99.90;;;;;;5055324;28;20014;-78
2022/08/31 06:37:44;;;;;;;;;;;15.20;99.90;;;;;;5054497;28;20405;-78
2022/08/31 06:40:09;;;;;;;;;;;15.30;99.90;;;;;;5050359;28;19944;-78
2022/08/31 06:42:35;;;;;;;;;;;15.30;99.90;;;;;;5044758;28;20287;-79
2022/08/31 06:45:00;;;;;;;;;;;15.30;99.90;;;;;;5043369;28;19924;-78
2022/08/31 06:47:26;;;;;;;;;;;15.40;99.90;;;;;;5045029;28;19928;-78
2022/08/31 06:49:52;;;;;;;;;;;15.40;99.90;;;;;;5044057;28;19980;-79
2022/08/31 06:52:17;;;;;;;;;;;15.50;99.90;;;;;;5044093;28;20424;-78
2022/08/31 06:54:43;;;;;;;;;;;15.50;99.90;;;;;;5044389;28;19951;-78
2022/08/31 06:57:08;;;;;;;;;;;15.60;99.90;;;;;;5043339;28;19932;-79
2022/08/31 06:59:34;;;;;;;;;;;15.60;99.90;;;;;;5043554;28;20386;-78
2022/08/31 07:02:00;;;;;;;;;;;15.60;99.90;;;;;;5044342;28;20019;-79
2022/08/31 07:04:25;;;;;;;;;;;15.70;99.90;;;;;;5045302;28;19959;-78
2022/08/31 07:06:51;;;;;;;;;;;15.70;99.90;;;;;;5044336;28;19925;-78
2022/08/31 07:09:17;;;;;;;;;;;15.80;99.90;;;;;;5042238;28;20383;-78
2022/08/31 07:11:44;;;;;;;;;;;15.80;99.90;;;;;;5043803;28;19931;-78
2022/08/31 07:14:11;;;;;;;;;;;15.90;99.90;;;;;;5024455;28;19932;-78
2022/08/31 07:16:36;;;;;;;;;;;15.90;99.90;;;;;;5043578;28;20023;-78
2022/08/31 07:19:02;;;;;;;;;;;16.00;99.90;;;;;;5043406;28;20309;-78
2022/08/31 07:21:29;;;;;;;;;;;16.00;99.90;;;;;;5043528;28;19925;-78
2022/08/31 07:23:57;;;;;;;;;;;16.10;99.90;;;;;;5042745;28;19925;-78
2022/08/31 07:26:24;;;;;;;;;;;16.10;99.90;;;;;;5041755;28;19925;-78
2022/08/31 07:28:52;;;;;;;;;;;16.20;99.90;;;;;;5041948;28;19936;-78
2022/08/31 07:31:22;;;;;;;;;;;16.20;99.90;;;;;;5043123;28;20290;-77
2022/08/31 07:33:48;;;;;;;;;;;16.30;99.90;;;;;;5042939;28;19982;-78
2022/08/31 07:36:15;;;;;;;;;;;16.30;99.90;;;;;;5061577;28;19928;-78
2022/08/31 07:44:11;;;;;;;;;;;16.50;99.90;;;;;;5062356;28;20023;-78
2022/08/31 07:46:37;;;;;;;;;;;16.50;99.90;;;;;;5062096;28;20196;-78
2022/08/31 07:49:07;;;;;;;;;;;16.50;99.90;;;;;;5062830;28;20371;-78
2022/08/31 07:51:33;;;;;;;;;;;16.60;99.90;;;;;;5062028;28;20348;-78
2022/08/31 07:53:59;;;;;;;;;;;16.60;99.90;;;;;;5063053;28;19925;-78
2022/08/31 07:56:25;;;;;;;;;;;16.70;99.90;;;;;;5062779;28;19925;-77
2022/08/31 07:58:50;;;;;;;;;;;16.70;99.90;;;;;;5043384;28;20298;-78
2022/08/31 08:01:16;;;;;;;;;;;16.70;99.90;;;;;;5063133;28;20011;-78
2022/08/31 08:03:45;;;;;;;;;;;16.80;99.90;;;;;;5062977;28;19925;-78
2022/08/31 08:06:11;;;;;;;;;;;16.80;99.90;;;;;;5062734;28;19975;-79
2022/08/31 08:08:37;;;;;;;;;;;16.80;99.90;;;;;;5063134;28;19924;-77
2022/08/31 08:11:03;;;;;;;;;;;16.90;99.90;;;;;;5063290;28;19924;-77
2022/08/31 08:13:28;;;;;;;;;;;16.90;99.90;;;;;;5061233;28;19977;-79
2022/08/31 08:15:54;;;;;;;;;;;16.90;99.90;;;;;;5063068;28;20579;-77
2022/08/31 08:18:20;;;;;;;;;;;17.00;99.90;;;;;;5045436;28;19925;-78
2022/08/31 08:20:46;;;;;;;;;;;17.10;99.90;;;;;;5062644;28;19924;-78
2022/08/31 08:23:14;;;;;;;;;;;17.10;99.90;;;;;;5062927;28;19963;-78
2022/08/31 08:25:40;;;;;;;;;;;17.20;99.90;;;;;;5062955;28;19931;-78
2022/08/31 08:28:06;;;;;;;;;;;17.20;99.90;;;;;;5044159;28;19936;-78
2022/08/31 08:30:32;;;;;;;;;;;17.30;99.90;;;;;;5062751;28;19924;-78
2022/08/31 08:33:02;;;;;;;;;;;17.30;99.90;;;;;;5063343;28;19931;-78
2022/08/31 08:35:29;;;;;;;;;;;17.30;99.90;;;;;;5032159;28;19939;-78
2022/08/31 08:37:55;;;;;;;;;;;17.40;99.90;;;;;;5025601;28;19945;-78
2022/08/31 08:40:35;;;;;;;;;;;17.50;99.90;;;;;;5042568;28;19924;-78
2022/08/31 08:43:04;;;;;;;;;;;17.50;99.90;;;;;;5041800;28;19925;-77
2022/08/31 08:45:30;;;;;;;;;;;17.50;99.90;;;;;;5042271;28;19925;-78
2022/08/31 08:47:57;;;;;;;;;;;17.60;99.90;;;;;;5042810;28;19926;-79
2022/08/31 08:50:26;;;;;;;;;;;17.60;99.90;;;;;;5042357;28;19925;-79
2022/08/31 08:52:53;;;;;;;;;;;17.60;99.90;;;;;;5041733;28;20398;-74
2022/08/31 08:55:21;;;;;;;;;;;17.70;99.90;;;;;;5042269;28;19971;-77
2022/08/31 08:57:48;;;;;;;;;;;17.70;99.90;;;;;;5041487;28;19925;-77
2022/08/31 09:00:14;;;;;;;;;;;17.70;99.90;;;;;;5042570;28;19932;-77
2022/08/31 09:02:47;;;;;;;;;;;17.80;99.90;;;;;;5044166;28;19925;-77
2022/08/31 09:05:20;;;;;;;;;;;17.80;99.90;;;;;;5047130;28;19929;-77
2022/08/31 09:08:08;;;;;;;;;;;17.80;99.90;;;;;;5042151;28;19979;-77
2022/08/31 09:10:54;;;;;;;;;;;17.80;99.90;;;;;;5041549;28;20463;-79
2022/08/31 09:13:20;;;;;;;;;;;17.80;99.90;;;;;;5009922;28;20268;-76
2022/08/31 09:15:54;;;;;;;;;;;17.80;99.90;;;;;;5038503;28;20046;-76
2022/08/31 09:18:42;;;;;;;;;;;17.90;99.90;;;;;;5028049;28;19925;-76
2022/08/31 09:21:19;;;;;;;;;;;18.00;99.90;;;;;;5038919;28;19925;-76
2022/08/31 09:23:47;;;;;;;;;;;18.00;99.90;;;;;;5042646;28;19935;-77
2022/08/31 09:26:17;;;;;;;;;;;18.10;99.90;;;;;;5044150;28;19929;-77
2022/08/31 09:28:47;;;;;;;;;;;18.10;99.90;;;;;;5042939;28;19924;-77
2022/08/31 09:31:24;;;;;;;;;;;18.10;99.90;;;;;;5054423;28;20298;-77
2022/08/31 09:33:50;;;;;;;;;;;18.10;99.90;;;;;;5042453;28;20438;-77
2022/08/31 09:36:17;;;;;;;;;;;18.10;99.90;;;;;;5050745;28;19932;-77
2022/08/31 09:38:45;;;;;;;;;;;18.10;99.90;;;;;;5061695;28;19925;-77
2022/08/31 09:41:30;;;;;;;;;;;18.10;99.90;;;;;;5054748;28;19929;-77
2022/08/31 09:44:14;;;;;;;;;;;18.10;99.90;;;;;;5036396;28;19936;-77
2022/08/31 09:46:46;;;;;;;;;;;18.10;99.90;;;;;;5032695;28;20332;-77
2022/08/31 09:49:17;;;;;;;;;;;18.10;99.90;;;;;;5042954;28;19925;-77
2022/08/31 09:51:42;;;;;;;;;;;18.20;99.90;;;;;;5058160;28;19930;-77
2022/08/31 09:56:59;;;;;;;;;;;18.10;99.90;;;;;;5034048;28;19990;-77
2022/08/31 09:59:57;;;;;;;;;;;18.10;99.90;;;;;;5060988;28;19924;-80
2022/08/31 10:02:36;;;;;;;;;;;18.20;99.90;;;;;;5014894;28;19925;-79
2022/08/31 10:05:22;;;;;;;;;;;18.20;99.90;;;;;;5048311;28;19925;-80
2022/08/31 10:07:55;;;;;;;;;;;18.20;99.90;;;;;;5064544;28;19924;-79
2022/08/31 10:10:26;;;;;;;;;;;18.30;99.90;;;;;;5047663;28;20409;-79
2022/08/31 10:13:01;;;;;;;;;;;18.40;99.90;;;;;;5064682;28;19932;-81
2022/08/31 10:15:29;;;;;;;;;;;18.50;99.90;;;;;;5037263;28;20427;-81
2022/08/31 10:18:01;;;;;;;;;;;18.60;99.90;;;;;;5037449;28;19932;-78
2022/08/31 10:20:38;;;;;;;;;;;18.60;99.90;;;;;;5042207;28;19933;-80
2022/08/31 10:23:15;;;;;;;;;;;18.80;99.90;;;;;;5032011;28;19925;-85
2022/08/31 10:25:46;;;;;;;;;;;18.80;99.90;;;;;;5041081;28;20275;-83
2022/08/31 10:28:17;;;;;;;;;;;18.90;99.90;;;;;;5022950;28;19973;-83
2022/08/31 10:30:51;;;;;;;;;;;19.00;99.90;;;;;;5031908;28;19932;-84
2022/08/31 10:33:19;;;;;;;;;;;19.00;99.90;;;;;;5026936;28;19925;-84
2022/08/31 10:35:56;;;;;;;;;;;19.10;99.90;;;;;;5042925;28;19950;-83
2022/08/31 10:38:39;;;;;;;;;;;19.10;99.90;;;;;;5042400;28;19928;-83
2022/08/31 10:41:25;;;;;;;;;;;19.10;99.60;;;;;;5042800;28;19929;-83
2022/08/31 10:44:00;;;;;;;;;;;19.10;99.90;;;;;;5043361;28;19924;-83
2022/08/31 10:46:27;;;;;;;;;;;19.00;99.00;;;;;;5031879;28;19925;-82
2022/08/31 10:48:55;;;;;;;;;;;19.10;99.20;;;;;;5036144;28;19975;-83
2022/08/31 10:51:26;;;;;;;;;;;19.10;98.40;;;;;;5027284;28;19925;-82
2022/08/31 10:54:05;;;;;;;;;;;19.10;96.30;;;;;;5027576;28;19932;-82
2022/08/31 10:56:40;;;;;;;;;;;19.10;99.50;;;;;;5041038;28;20344;-83
2022/08/31 10:59:21;;;;;;;;;;;19.20;95.70;;;;;;5033350;28;20283;-83
2022/08/31 11:01:54;;;;;;;;;;;19.20;98.40;;;;;;5036741;28;19926;-83
2022/08/31 11:04:23;;;;;;;;;;;19.30;97.50;;;;;;5023114;28;19925;-83
2022/08/31 11:06:53;;;;;;;;;;;19.40;98.50;;;;;;5036885;28;19928;-83
2022/08/31 11:09:24;;;;;;;;;;;19.40;97.30;;;;;;5042444;28;19928;-83
2022/08/31 11:11:58;;;;;;;;;;;19.40;98.60;;;;;;5028817;28;19931;-84
2022/08/31 11:14:44;;;;;;;;;;;19.50;98.20;;;;;;5022018;28;19925;-84
2022/08/31 11:17:09;;;;;;;;;;;19.60;98.30;;;;;;5023106;28;19932;-84
2022/08/31 11:19:48;;;;;;;;;;;19.70;99.70;;;;;;5022185;28;19925;-84
2022/08/31 11:22:36;;;;;;;;;;;19.70;99.80;;;;;;5025167;28;20334;-83
2022/08/31 11:25:13;;;;;;;;;;;19.80;99.90;;;;;;5027352;28;19982;-84
2022/08/31 11:27:43;;;;;;;;;;;19.80;99.90;;;;;;5029947;28;19925;-83
2022/08/31 11:30:09;;;;;;;;;;;19.80;99.90;;;;;;5038901;28;19925;-83
2022/08/31 11:32:38;;;;;;;;;;;19.80;99.90;;;;;;5029014;28;20353;-83
2022/08/31 11:35:09;;;;;;;;;;;19.70;99.90;;;;;;5033799;28;19924;-83
2022/08/31 11:37:45;;;;;;;;;;;19.70;99.90;;;;;;5021687;28;20108;-83
2022/08/31 11:40:11;;;;;;;;;;;19.70;99.90;;;;;;5023361;28;20037;-84
2022/08/31 11:42:36;;;;;;;;;;;19.70;99.90;;;;;;5025741;28;20034;-83
2022/08/31 11:45:21;;;;;;;;;;;19.60;99.90;;;;;;5033270;28;19925;-82
2022/08/31 11:47:47;;;;;;;;;;;19.60;99.60;;;;;;5037505;28;20390;-82
2022/08/31 11:50:32;;;;;;;;;;;19.60;99.90;;;;;;5042944;28;19929;-83
2022/08/31 11:52:59;;;;;;;;;;;19.60;99.90;;;;;;5037188;28;19925;-82
2022/08/31 11:55:28;;;;;;;;;;;19.60;99.90;;;;;;5023272;28;20028;-83
2022/08/31 11:58:06;;;;;;;;;;;19.60;99.90;;;;;;5022473;28;20068;-83
2022/08/31 12:00:46;;;;;;;;;;;19.70;99.90;;;;;;5026714;28;20391;-83
2022/08/31 12:03:32;;;;;;;;;;;19.70;99.90;;;;;;5023816;28;20224;-83
2022/08/31 12:05:58;;;;;;;;;;;19.70;99.90;;;;;;5035291;28;19971;-83
2022/08/31 12:08:25;;;;;;;;;;;19.80;99.90;;;;;;5041439;28;19976;-83
2022/08/31 12:10:59;;;;;;;;;;;19.80;99.90;;;;;;5041638;28;19925;-82
2022/08/31 12:13:48;;;;;;;;;;;19.80;99.90;;;;;;5035309;28;19935;-83
2022/08/31 12:16:19;;;;;;;;;;;19.80;99.90;;;;;;5022976;28;19936;-83
2022/08/31 12:18:50;;;;;;;;;;;19.90;99.90;;;;;;5022296;28;19925;-83
2022/08/31 12:24:37;;;;;;;;;;;19.80;99.90;;;;;;5039334;28;19929;-83
2022/08/31 12:27:09;;;;;;;;;;;19.80;99.90;;;;;;5041020;28;19931;-83
2022/08/31 12:29:36;;;;;;;;;;;19.90;99.90;;;;;;5027755;28;19936;-83
2022/08/31 12:32:20;;;;;;;;;;;19.90;99.90;;;;;;5034368;28;19925;-82
2022/08/31 12:34:48;;;;;;;;;;;20.00;99.60;;;;;;5022174;28;19932;-82
2022/08/31 12:37:20;;;;;;;;;;;20.00;99.90;;;;;;5033086;28;19929;-83
2022/08/31 12:39:45;;;;;;;;;;;20.10;99.90;;;;;;5042274;28;19929;-83
2022/08/31 12:42:11;;;;;;;;;;;20.10;99.90;;;;;;5041635;28;19932;-83
2022/08/31 12:44:37;;;;;;;;;;;20.10;99.90;;;;;;5042179;28;20595;-83
2022/08/31 12:47:15;;;;;;;;;;;20.10;99.90;;;;;;5041437;28;20391;-83
2022/08/31 12:49:50;;;;;;;;;;;20.00;99.90;;;;;;5041757;28;20183;-83
2022/08/31 12:52:18;;;;;;;;;;;20.10;99.90;;;;;;5042443;28;19994;-83
2022/08/31 12:54:53;;;;;;;;;;;20.10;99.90;;;;;;5030299;28;19979;-82
2022/08/31 12:57:29;;;;;;;;;;;20.10;99.90;;;;;;5038717;28;20228;-82
2022/08/31 13:00:00;;;;;;;;;;;20.10;99.90;;;;;;5040493;28;19925;-81
2022/08/31 13:02:27;;;;;;;;;;;20.10;99.90;;;;;;5041066;28;19925;-83
2022/08/31 13:04:52;;;;;;;;;;;20.10;99.90;;;;;;5040554;28;19929;-83
2022/08/31 13:07:22;;;;;;;;;;;20.10;99.90;;;;;;5042387;28;20147;-83
2022/08/31 13:10:01;;;;;;;;;;;20.10;99.90;;;;;;5041888;28;19932;-83
2022/08/31 13:12:27;;;;;;;;;;;20.10;99.90;;;;;;5041134;28;19925;-83
2022/08/31 13:14:52;;;;;;;;;;;20.10;99.90;;;;;;5040621;28;19925;-82
2022/08/31 13:17:20;;;;;;;;;;;20.20;99.90;;;;;;5034234;28;19936;-83
2022/08/31 13:19:56;;;;;;;;;;;20.10;99.90;;;;;;5042969;28;20126;-83
2022/08/31 13:22:25;;;;;;;;;;;20.20;99.30;;;;;;5043456;28;19925;-87
2022/08/31 13:24:51;;;;;;;;;;;20.20;99.70;;;;;;5028756;28;20525;-88
2022/08/31 13:27:18;;;;;;;;;;;20.20;98.10;;;;;;5053593;28;19924;-87
2022/08/31 13:29:44;;;;;;;;;;;20.20;99.00;;;;;;5044931;28;19976;-85
2022/08/31 13:32:11;;;;;;;;;;;20.10;98.50;;;;;;5059100;28;19960;-86
2022/08/31 13:34:42;;;;;;;;;;;20.20;99.90;;;;;;5043172;28;19924;-86
2022/08/31 13:37:13;;;;;;;;;;;20.20;99.30;;;;;;5047572;28;20650;-86
2022/08/31 13:39:43;;;;;;;;;;;20.20;98.50;;;;;;5063256;28;20779;-86
2022/08/31 13:42:11;;;;;;;;;;;20.20;99.90;;;;;;5059550;28;19931;-84
2022/08/31 13:44:50;;;;;;;;;;;20.20;99.10;;;;;;5065189;28;19931;-84
2022/08/31 13:47:26;;;;;;;;;;;20.20;99.80;;;;;;5034966;28;20394;-85
2022/08/31 13:49:57;;;;;;;;;;;20.20;99.90;;;;;;5058592;28;20011;-79
2022/08/31 13:52:27;;;;;;;;;;;20.30;99.90;;;;;;5053004;28;19936;-78
2022/08/31 13:55:00;;;;;;;;;;;20.30;99.90;;;;;;5050323;28;19935;-79
2022/08/31 13:57:27;;;;;;;;;;;20.30;99.90;;;;;;5055035;28;19940;-80
2022/08/31 13:59:54;;;;;;;;;;;20.30;99.90;;;;;;5052938;28;19924;-79
2022/08/31 14:02:20;;;;;;;;;;;20.30;99.90;;;;;;5050310;28;19928;-78
2022/08/31 14:04:59;;;;;;;;;;;20.30;99.90;;;;;;5054949;28;19955;-78
2022/08/31 14:07:24;;;;;;;;;;;20.20;99.30;;;;;;5033200;28;20062;-81
2022/08/31 14:09:52;;;;;;;;;;;20.30;99.90;;;;;;5064875;28;20418;-80
2022/08/31 14:12:35;;;;;;;;;;;20.30;99.80;;;;;;5064499;28;19924;-80
2022/08/31 14:15:13;;;;;;;;;;;20.30;99.90;;;;;;5064572;28;19925;-80
2022/08/31 14:17:40;;;;;;;;;;;20.30;99.90;;;;;;5065041;28;19932;-80
2022/08/31 14:20:24;;;;;;;;;;;20.30;99.90;;;;;;5064278;28;19925;-80
2022/08/31 14:22:49;;;;;;;;;;;20.30;99.90;;;;;;5054343;28;19936;-80
2022/08/31 14:25:20;;;;;;;;;;;20.30;99.90;;;;;;5035134;28;19924;-80
2022/08/31 14:27:46;;;;;;;;;;;20.30;99.90;;;;;;5053044;28;19972;-80
2022/08/31 14:30:13;;;;;;;;;;;20.30;99.90;;;;;;5036249;28;20029;-80
2022/08/31 14:32:44;;;;;;;;;;;20.30;99.90;;;;;;5052464;28;19931;-80
2022/08/31 14:35:10;;;;;;;;;;;20.30;99.90;;;;;;5052538;28;20003;-80
2022/08/31 14:37:36;;;;;;;;;;;20.30;99.90;;;;;;5026726;28;20008;-81
2022/08/31 14:40:03;;;;;;;;;;;20.30;99.90;;;;;;5044886;28;20608;-80